sensor_id;sensor_type;location;lat;lon;timestamp;temperature;humidity
30572;DHT22;17348;50.948;10.696;2023-07-24T00:02:13;19.20;99.90
30572;DHT22;17348;50.948;10.696;2023-07-24T00:05:17;19.20;99.90
30572;DHT22;17348;50.948;10.696;2023-07-24T00:08:22;19.20;99.90
30572;DHT22;17348;50.948;10.696;2023-07-24T00:11:24;19.20;99.90
30572;DHT22;17348;50.948;10.696;2023-07-24T00:14:27;19.10;99.90
30572;DHT22;17348;50.948;10.696;2023-07-24T00:17:29;19.10;99.90
30572;DHT22;17348;50.948;10.696;2023-07-24T00:20:33;19.00;99.90
30572;DHT22;17348;50.948;10.696;2023-07-24T00:23:35;19.00;99.90
30572;DHT22;17348;50.948;10.696;2023-07-24T00:26:37;19.00;99.90
30572;DHT22;17348;50.948;10.696;2023-07-24T00:29:40;19.00;99.90
30572;DHT22;17348;50.948;10.696;2023-07-24T00:32:42;19.00;99.90
30572;DHT22;17348;50.948;10.696;2023-07-24T00:35:45;19.00;99.90
30572;DHT22;17348;50.948;10.696;2023-07-24T00:38:48;18.90;99.90
30572;DHT22;17348;50.948;10.696;2023-07-24T00:41:50;18.90;99.90
30572;DHT22;17348;50.948;10.696;2023-07-24T00:44:52;18.80;99.90
30572;DHT22;17348;50.948;10.696;2023-07-24T00:47:55;18.80;99.90
30572;DHT22;17348;50.948;10.696;2023-07-24T00:50:59;18.70;99.90
30572;DHT22;17348;50.948;10.696;2023-07-24T00:54:02;18.70;99.90
30572;DHT22;17348;50.948;10.696;2023-07-24T00:57:06;18.70;99.90
30572;DHT22;17348;50.948;10.696;2023-07-24T01:00:09;18.70;99.90
30572;DHT22;17348;50.948;10.696;2023-07-24T01:03:12;18.70;99.90
30572;DHT22;17348;50.948;10.696;2023-07-24T01:06:15;18.60;99.90
30572;DHT22;17348;50.948;10.696;2023-07-24T01:09:18;18.60;99.90
30572;DHT22;17348;50.948;10.696;2023-07-24T01:12:25;18.50;99.90
30572;DHT22;17348;50.948;10.696;2023-07-24T01:15:33;18.50;99.90
30572;DHT22;17348;50.948;10.696;2023-07-24T01:18:37;18.40;99.90
30572;DHT22;17348;50.948;10.696;2023-07-24T01:21:52;18.40;99.90
30572;DHT22;17348;50.948;10.696;2023-07-24T01:25:05;18.30;99.90
30572;DHT22;17348;50.948;10.696;2023-07-24T01:28:12;18.30;99.90
30572;DHT22;17348;50.948;10.696;2023-07-24T01:31:14;18.30;99.90
30572;DHT22;17348;50.948;10.696;2023-07-24T01:34:18;18.30;99.90
30572;DHT22;17348;50.948;10.696;2023-07-24T01:37:20;18.30;99.90
30572;DHT22;17348;50.948;10.696;2023-07-24T01:40:24;18.40;99.90
30572;DHT22;17348;50.948;10.696;2023-07-24T01:43:28;18.50;99.90
30572;DHT22;17348;50.948;10.696;2023-07-24T01:46:31;18.60;99.90
30572;DHT22;17348;50.948;10.696;2023-07-24T01:49:33;18.70;99.90
30572;DHT22;17348;50.948;10.696;2023-07-24T01:52:36;18.80;99.90
30572;DHT22;17348;50.948;10.696;2023-07-24T01:55:38;18.90;99.90
30572;DHT22;17348;50.948;10.696;2023-07-24T01:58:42;18.90;99.90
30572;DHT22;17348;50.948;10.696;2023-07-24T02:01:44;19.00;99.90
30572;DHT22;17348;50.948;10.696;2023-07-24T02:04:46;19.00;99.90
30572;DHT22;17348;50.948;10.696;2023-07-24T02:07:48;19.00;99.90
30572;DHT22;17348;50.948;10.696;2023-07-24T02:10:51;19.00;99.90
30572;DHT22;17348;50.948;10.696;2023-07-24T02:13:54;19.10;99.90
30572;DHT22;17348;50.948;10.696;2023-07-24T02:16:57;19.10;99.90
30572;DHT22;17348;50.948;10.696;2023-07-24T02:19:59;19.10;99.90
30572;DHT22;17348;50.948;10.696;2023-07-24T02:23:01;19.20;99.90
30572;DHT22;17348;50.948;10.696;2023-07-24T02:26:04;19.20;99.90
30572;DHT22;17348;50.948;10.696;2023-07-24T02:29:07;19.20;99.90
30572;DHT22;17348;50.948;10.696;2023-07-24T02:32:10;19.30;99.90
30572;DHT22;17348;50.948;10.696;2023-07-24T02:35:12;19.30;99.90
30572;DHT22;17348;50.948;10.696;2023-07-24T02:38:14;19.30;99.90
30572;DHT22;17348;50.948;10.696;2023-07-24T02:41:16;19.40;99.90
30572;DHT22;17348;50.948;10.696;2023-07-24T02:44:20;19.40;99.90
30572;DHT22;17348;50.948;10.696;2023-07-24T02:47:22;19.50;99.90
30572;DHT22;17348;50.948;10.696;2023-07-24T02:50:25;19.50;99.90
30572;DHT22;17348;50.948;10.696;2023-07-24T02:53:27;19.50;99.90
30572;DHT22;17348;50.948;10.696;2023-07-24T02:56:29;19.50;99.90
30572;DHT22;17348;50.948;10.696;2023-07-24T02:59:33;19.50;99.90
30572;DHT22;17348;50.948;10.696;2023-07-24T03:02:36;19.50;99.90
30572;DHT22;17348;50.948;10.696;2023-07-24T03:05:38;19.60;99.90
30572;DHT22;17348;50.948;10.696;2023-07-24T03:08:40;19.50;99.90
30572;DHT22;17348;50.948;10.696;2023-07-24T03:11:43;19.50;99.90
30572;DHT22;17348;50.948;10.696;2023-07-24T03:14:47;19.50;99.90
30572;DHT22;17348;50.948;10.696;2023-07-24T03:17:49;19.40;99.90
30572;DHT22;17348;50.948;10.696;2023-07-24T03:20:52;19.40;99.90
30572;DHT22;17348;50.948;10.696;2023-07-24T03:23:54;19.40;99.90
30572;DHT22;17348;50.948;10.696;2023-07-24T03:26:56;19.30;99.90
30572;DHT22;17348;50.948;10.696;2023-07-24T03:30:00;19.30;99.90
30572;DHT22;17348;50.948;10.696;2023-07-24T03:33:02;19.20;99.90
30572;DHT22;17348;50.948;10.696;2023-07-24T03:36:05;19.10;99.90
30572;DHT22;17348;50.948;10.696;2023-07-24T03:39:08;19.00;99.90
30572;DHT22;17348;50.948;10.696;2023-07-24T03:42:11;19.00;99.90
30572;DHT22;17348;50.948;10.696;2023-07-24T03:45:17;18.80;99.90
30572;DHT22;17348;50.948;10.696;2023-07-24T03:48:19;18.80;99.90
30572;DHT22;17348;50.948;10.696;2023-07-24T03:51:21;18.80;99.90
30572;DHT22;17348;50.948;10.696;2023-07-24T03:54:24;18.70;99.90
30572;DHT22;17348;50.948;10.696;2023-07-24T03:57:26;18.70;99.90
30572;DHT22;17348;50.948;10.696;2023-07-24T04:00:30;18.60;99.90
30572;DHT22;17348;50.948;10.696;2023-07-24T04:03:32;18.60;99.90
30572;DHT22;17348;50.948;10.696;2023-07-24T04:06:34;18.60;99.90
30572;DHT22;17348;50.948;10.696;2023-07-24T04:09:37;18.60;99.90
30572;DHT22;17348;50.948;10.696;2023-07-24T04:12:39;18.60;99.90
30572;DHT22;17348;50.948;10.696;2023-07-24T04:15:43;18.50;99.90
30572;DHT22;17348;50.948;10.696;2023-07-24T04:18:46;18.40;99.90
30572;DHT22;17348;50.948;10.696;2023-07-24T04:21:48;18.40;99.90
30572;DHT22;17348;50.948;10.696;2023-07-24T04:24:50;18.30;99.90
30572;DHT22;17348;50.948;10.696;2023-07-24T04:27:52;18.30;99.90
30572;DHT22;17348;50.948;10.696;2023-07-24T04:30:59;18.40;99.90
30572;DHT22;17348;50.948;10.696;2023-07-24T04:34:01;18.30;99.90
30572;DHT22;17348;50.948;10.696;2023-07-24T04:37:04;18.40;99.90
30572;DHT22;17348;50.948;10.696;2023-07-24T04:40:07;18.40;99.90
30572;DHT22;17348;50.948;10.696;2023-07-24T04:43:10;18.30;99.90
30572;DHT22;17348;50.948;10.696;2023-07-24T04:46:13;18.40;99.90
30572;DHT22;17348;50.948;10.696;2023-07-24T04:49:16;18.50;99.90
30572;DHT22;17348;50.948;10.696;2023-07-24T04:52:18;18.50;99.90
30572;DHT22;17348;50.948;10.696;2023-07-24T04:55:21;18.60;99.90
30572;DHT22;17348;50.948;10.696;2023-07-24T04:58:23;18.80;99.90
30572;DHT22;17348;50.948;10.696;2023-07-24T05:01:27;18.90;99.90
30572;DHT22;17348;50.948;10.696;2023-07-24T05:04:29;19.00;99.90
30572;DHT22;17348;50.948;10.696;2023-07-24T05:07:31;19.10;99.90
30572;DHT22;17348;50.948;10.696;2023-07-24T05:10:35;19.20;99.90
30572;DHT22;17348;50.948;10.696;2023-07-24T05:13:37;19.30;99.90
30572;DHT22;17348;50.948;10.696;2023-07-24T05:16:41;19.30;99.90
30572;DHT22;17348;50.948;10.696;2023-07-24T05:19:43;19.40;99.90
30572;DHT22;17348;50.948;10.696;2023-07-24T05:22:45;19.50;99.90
30572;DHT22;17348;50.948;10.696;2023-07-24T05:25:55;19.50;99.90
30572;DHT22;17348;50.948;10.696;2023-07-24T05:28:57;19.60;99.90
30572;DHT22;17348;50.948;10.696;2023-07-24T05:32:01;19.70;99.90
30572;DHT22;17348;50.948;10.696;2023-07-24T05:35:04;19.80;99.90
30572;DHT22;17348;50.948;10.696;2023-07-24T05:38:06;19.90;99.90
30572;DHT22;17348;50.948;10.696;2023-07-24T05:41:09;20.00;99.90
30572;DHT22;17348;50.948;10.696;2023-07-24T05:44:11;20.10;99.90
30572;DHT22;17348;50.948;10.696;2023-07-24T05:47:15;20.30;99.90
30572;DHT22;17348;50.948;10.696;2023-07-24T05:50:17;20.40;99.90
30572;DHT22;17348;50.948;10.696;2023-07-24T05:53:19;20.50;99.90
30572;DHT22;17348;50.948;10.696;2023-07-24T05:56:22;20.60;99.90
30572;DHT22;17348;50.948;10.696;2023-07-24T05:59:24;20.90;99.90
30572;DHT22;17348;50.948;10.696;2023-07-24T06:02:28;21.00;99.90
30572;DHT22;17348;50.948;10.696;2023-07-24T06:05:30;21.10;99.90
30572;DHT22;17348;50.948;10.696;2023-07-24T06:08:32;21.30;99.90
30572;DHT22;17348;50.948;10.696;2023-07-24T06:11:35;21.40;99.90
30572;DHT22;17348;50.948;10.696;2023-07-24T06:14:37;21.70;99.90
30572;DHT22;17348;50.948;10.696;2023-07-24T06:17:41;21.90;99.90
30572;DHT22;17348;50.948;10.696;2023-07-24T06:20:43;22.10;99.90
30572;DHT22;17348;50.948;10.696;2023-07-24T06:23:45;22.20;99.90
30572;DHT22;17348;50.948;10.696;2023-07-24T06:26:47;22.30;99.90
30572;DHT22;17348;50.948;10.696;2023-07-24T06:29:50;22.40;99.90
30572;DHT22;17348;50.948;10.696;2023-07-24T06:32:53;22.60;99.90
30572;DHT22;17348;50.948;10.696;2023-07-24T06:35:56;22.70;99.90
30572;DHT22;17348;50.948;10.696;2023-07-24T06:38:58;22.70;99.90
30572;DHT22;17348;50.948;10.696;2023-07-24T06:42:00;22.70;99.90
30572;DHT22;17348;50.948;10.696;2023-07-24T06:45:04;22.90;99.90
30572;DHT22;17348;50.948;10.696;2023-07-24T06:48:07;23.00;99.90
30572;DHT22;17348;50.948;10.696;2023-07-24T06:51:10;23.00;99.90
30572;DHT22;17348;50.948;10.696;2023-07-24T06:54:12;23.00;99.90
30572;DHT22;17348;50.948;10.696;2023-07-24T06:57:14;23.00;99.90
30572;DHT22;17348;50.948;10.696;2023-07-24T07:00:17;23.10;99.90
30572;DHT22;17348;50.948;10.696;2023-07-24T07:03:21;23.20;99.90
30572;DHT22;17348;50.948;10.696;2023-07-24T07:06:23;23.20;99.90
30572;DHT22;17348;50.948;10.696;2023-07-24T07:09:26;23.30;99.90
30572;DHT22;17348;50.948;10.696;2023-07-24T07:12:28;23.40;99.90
30572;DHT22;17348;50.948;10.696;2023-07-24T07:15:30;23.40;99.90
30572;DHT22;17348;50.948;10.696;2023-07-24T07:18:34;23.40;99.90
30572;DHT22;17348;50.948;10.696;2023-07-24T07:21:36;23.40;99.90
30572;DHT22;17348;50.948;10.696;2023-07-24T07:24:39;23.40;99.90
30572;DHT22;17348;50.948;10.696;2023-07-24T07:27:41;23.50;99.90
30572;DHT22;17348;50.948;10.696;2023-07-24T07:30:43;23.60;99.90
30572;DHT22;17348;50.948;10.696;2023-07-24T07:33:47;23.60;99.90
30572;DHT22;17348;50.948;10.696;2023-07-24T07:36:50;23.70;99.90
30572;DHT22;17348;50.948;10.696;2023-07-24T07:39:52;23.80;99.90
30572;DHT22;17348;50.948;10.696;2023-07-24T07:42:54;23.90;99.90
30572;DHT22;17348;50.948;10.696;2023-07-24T07:45:57;23.80;99.90
30572;DHT22;17348;50.948;10.696;2023-07-24T07:49:02;24.00;99.90
30572;DHT22;17348;50.948;10.696;2023-07-24T07:52:08;23.90;99.90
30572;DHT22;17348;50.948;10.696;2023-07-24T07:55:15;23.80;99.90
30572;DHT22;17348;50.948;10.696;2023-07-24T07:58:18;23.80;99.90
30572;DHT22;17348;50.948;10.696;2023-07-24T08:01:23;23.90;99.90
30572;DHT22;17348;50.948;10.696;2023-07-24T08:04:30;24.00;99.90
30572;DHT22;17348;50.948;10.696;2023-07-24T08:07:32;24.00;99.90
30572;DHT22;17348;50.948;10.696;2023-07-24T08:10:37;24.10;99.90
30572;DHT22;17348;50.948;10.696;2023-07-24T08:13:39;24.20;99.90
30572;DHT22;17348;50.948;10.696;2023-07-24T08:16:41;24.30;99.90
30572;DHT22;17348;50.948;10.696;2023-07-24T08:19:45;24.30;99.90
30572;DHT22;17348;50.948;10.696;2023-07-24T08:22:47;24.50;99.90
30572;DHT22;17348;50.948;10.696;2023-07-24T08:25:52;24.70;99.90
30572;DHT22;17348;50.948;10.696;2023-07-24T08:28:55;24.90;99.90
30572;DHT22;17348;50.948;10.696;2023-07-24T08:31:57;25.20;99.90
30572;DHT22;17348;50.948;10.696;2023-07-24T08:35:01;25.20;99.90
30572;DHT22;17348;50.948;10.696;2023-07-24T08:38:03;25.10;99.90
30572;DHT22;17348;50.948;10.696;2023-07-24T08:41:07;25.10;99.90
30572;DHT22;17348;50.948;10.696;2023-07-24T08:44:09;25.10;99.90
30572;DHT22;17348;50.948;10.696;2023-07-24T08:47:13;25.10;99.90
30572;DHT22;17348;50.948;10.696;2023-07-24T08:50:18;25.20;99.90
30572;DHT22;17348;50.948;10.696;2023-07-24T08:53:23;25.30;99.90
30572;DHT22;17348;50.948;10.696;2023-07-24T08:56:26;25.30;99.90
30572;DHT22;17348;50.948;10.696;2023-07-24T08:59:28;25.50;99.90
30572;DHT22;17348;50.948;10.696;2023-07-24T09:02:31;25.60;99.90
30572;DHT22;17348;50.948;10.696;2023-07-24T09:05:35;25.70;99.90
30572;DHT22;17348;50.948;10.696;2023-07-24T09:08:38;25.90;99.90
30572;DHT22;17348;50.948;10.696;2023-07-24T09:11:48;26.10;99.90
30572;DHT22;17348;50.948;10.696;2023-07-24T09:15:01;26.10;99.90
30572;DHT22;17348;50.948;10.696;2023-07-24T09:18:04;26.10;99.90
30572;DHT22;17348;50.948;10.696;2023-07-24T09:21:07;26.10;99.90
30572;DHT22;17348;50.948;10.696;2023-07-24T09:24:11;26.30;99.90
30572;DHT22;17348;50.948;10.696;2023-07-24T09:27:14;26.30;99.90
30572;DHT22;17348;50.948;10.696;2023-07-24T09:30:16;26.50;99.90
30572;DHT22;17348;50.948;10.696;2023-07-24T09:33:34;26.60;99.90
30572;DHT22;17348;50.948;10.696;2023-07-24T09:36:38;26.50;99.90
30572;DHT22;17348;50.948;10.696;2023-07-24T09:39:41;26.60;99.90
30572;DHT22;17348;50.948;10.696;2023-07-24T09:42:43;26.80;99.90
30572;DHT22;17348;50.948;10.696;2023-07-24T09:45:46;26.70;99.90
30572;DHT22;17348;50.948;10.696;2023-07-24T09:48:49;26.80;99.90
30572;DHT22;17348;50.948;10.696;2023-07-24T09:51:54;26.70;99.90
30572;DHT22;17348;50.948;10.696;2023-07-24T09:55:05;26.90;99.90
30572;DHT22;17348;50.948;10.696;2023-07-24T09:58:08;27.00;99.90
30572;DHT22;17348;50.948;10.696;2023-07-24T10:01:11;27.00;99.90
30572;DHT22;17348;50.948;10.696;2023-07-24T10:04:15;27.00;99.90
30572;DHT22;17348;50.948;10.696;2023-07-24T10:07:19;27.00;99.90
30572;DHT22;17348;50.948;10.696;2023-07-24T10:10:24;27.20;99.90
30572;DHT22;17348;50.948;10.696;2023-07-24T10:13:28;27.40;99.60
30572;DHT22;17348;50.948;10.696;2023-07-24T10:16:32;27.60;99.80
30572;DHT22;17348;50.948;10.696;2023-07-24T10:19:39;27.80;99.80
30572;DHT22;17348;50.948;10.696;2023-07-24T10:22:45;28.00;99.10
30572;DHT22;17348;50.948;10.696;2023-07-24T10:25:51;28.00;98.70
30572;DHT22;17348;50.948;10.696;2023-07-24T10:28:54;28.10;98.80
30572;DHT22;17348;50.948;10.696;2023-07-24T10:31:56;28.10;98.60
30572;DHT22;17348;50.948;10.696;2023-07-24T10:35:06;28.20;98.40
30572;DHT22;17348;50.948;10.696;2023-07-24T10:38:11;28.20;98.50
30572;DHT22;17348;50.948;10.696;2023-07-24T10:41:13;28.40;98.40
30572;DHT22;17348;50.948;10.696;2023-07-24T10:44:31;28.70;97.70
30572;DHT22;17348;50.948;10.696;2023-07-24T10:47:34;28.60;97.60
30572;DHT22;17348;50.948;10.696;2023-07-24T10:50:37;28.60;97.30
30572;DHT22;17348;50.948;10.696;2023-07-24T10:53:43;28.70;97.20
30572;DHT22;17348;50.948;10.696;2023-07-24T10:56:46;28.60;97.20
30572;DHT22;17348;50.948;10.696;2023-07-24T10:59:50;28.60;97.30
30572;DHT22;17348;50.948;10.696;2023-07-24T11:02:52;28.70;97.20
30572;DHT22;17348;50.948;10.696;2023-07-24T11:05:57;28.80;97.10
30572;DHT22;17348;50.948;10.696;2023-07-24T11:09:00;28.70;96.50
30572;DHT22;17348;50.948;10.696;2023-07-24T11:12:10;28.80;96.70
30572;DHT22;17348;50.948;10.696;2023-07-24T11:15:14;28.60;96.80
30572;DHT22;17348;50.948;10.696;2023-07-24T11:18:17;28.50;97.10
30572;DHT22;17348;50.948;10.696;2023-07-24T11:21:22;28.50;97.00
30572;DHT22;17348;50.948;10.696;2023-07-24T11:24:25;28.40;97.80
30572;DHT22;17348;50.948;10.696;2023-07-24T11:27:27;28.40;97.30
30572;DHT22;17348;50.948;10.696;2023-07-24T11:30:31;28.30;97.20
30572;DHT22;17348;50.948;10.696;2023-07-24T11:33:33;28.30;97.30
30572;DHT22;17348;50.948;10.696;2023-07-24T11:36:36;28.40;97.40
30572;DHT22;17348;50.948;10.696;2023-07-24T11:39:39;28.20;97.00
30572;DHT22;17348;50.948;10.696;2023-07-24T11:42:43;27.90;97.20
30572;DHT22;17348;50.948;10.696;2023-07-24T11:45:47;27.80;97.90
30572;DHT22;17348;50.948;10.696;2023-07-24T11:48:53;27.70;98.30
30572;DHT22;17348;50.948;10.696;2023-07-24T11:52:01;27.70;97.40
30572;DHT22;17348;50.948;10.696;2023-07-24T11:55:04;27.70;97.70
30572;DHT22;17348;50.948;10.696;2023-07-24T11:58:07;27.60;97.40
30572;DHT22;17348;50.948;10.696;2023-07-24T12:01:11;27.70;98.10
30572;DHT22;17348;50.948;10.696;2023-07-24T12:04:14;27.80;98.20
30572;DHT22;17348;50.948;10.696;2023-07-24T12:07:16;27.90;98.30
30572;DHT22;17348;50.948;10.696;2023-07-24T12:10:25;27.80;98.50
30572;DHT22;17348;50.948;10.696;2023-07-24T12:13:28;27.70;98.10
30572;DHT22;17348;50.948;10.696;2023-07-24T12:16:35;27.70;98.50
30572;DHT22;17348;50.948;10.696;2023-07-24T12:19:37;27.80;98.50
30572;DHT22;17348;50.948;10.696;2023-07-24T12:22:41;27.90;98.20
30572;DHT22;17348;50.948;10.696;2023-07-24T12:25:43;28.00;97.50
30572;DHT22;17348;50.948;10.696;2023-07-24T12:28:45;28.00;97.90
30572;DHT22;17348;50.948;10.696;2023-07-24T12:31:49;28.10;97.80
30572;DHT22;17348;50.948;10.696;2023-07-24T12:34:52;28.10;97.30
30572;DHT22;17348;50.948;10.696;2023-07-24T12:37:55;28.10;96.90
30572;DHT22;17348;50.948;10.696;2023-07-24T12:40:57;28.20;97.20
30572;DHT22;17348;50.948;10.696;2023-07-24T12:44:00;28.20;97.40
30572;DHT22;17348;50.948;10.696;2023-07-24T12:47:04;28.40;97.40
30572;DHT22;17348;50.948;10.696;2023-07-24T12:50:07;28.40;96.80
30572;DHT22;17348;50.948;10.696;2023-07-24T12:53:09;28.40;97.10
30572;DHT22;17348;50.948;10.696;2023-07-24T12:56:11;28.40;96.80
30572;DHT22;17348;50.948;10.696;2023-07-24T12:59:14;28.30;97.30
30572;DHT22;17348;50.948;10.696;2023-07-24T13:02:17;28.20;97.30
30572;DHT22;17348;50.948;10.696;2023-07-24T13:05:20;28.40;97.60
30572;DHT22;17348;50.948;10.696;2023-07-24T13:08:22;28.40;97.40
30572;DHT22;17348;50.948;10.696;2023-07-24T13:11:24;28.40;96.90
30572;DHT22;17348;50.948;10.696;2023-07-24T13:14:29;27.90;96.30
30572;DHT22;17348;50.948;10.696;2023-07-24T13:17:32;27.90;97.20
30572;DHT22;17348;50.948;10.696;2023-07-24T13:20:34;28.00;96.50
30572;DHT22;17348;50.948;10.696;2023-07-24T13:23:37;28.10;96.20
30572;DHT22;17348;50.948;10.696;2023-07-24T13:26:39;28.20;95.80
30572;DHT22;17348;50.948;10.696;2023-07-24T13:29:42;28.10;94.90
30572;DHT22;17348;50.948;10.696;2023-07-24T13:32:45;28.20;94.70
30572;DHT22;17348;50.948;10.696;2023-07-24T13:35:48;28.30;93.30
30572;DHT22;17348;50.948;10.696;2023-07-24T13:38:50;28.00;93.10
30572;DHT22;17348;50.948;10.696;2023-07-24T13:41:52;28.20;93.20
30572;DHT22;17348;50.948;10.696;2023-07-24T13:44:55;28.30;93.20
30572;DHT22;17348;50.948;10.696;2023-07-24T13:47:58;28.10;92.90
30572;DHT22;17348;50.948;10.696;2023-07-24T13:51:01;28.10;93.10
30572;DHT22;17348;50.948;10.696;2023-07-24T13:54:04;28.10;93.10
30572;DHT22;17348;50.948;10.696;2023-07-24T13:57:06;28.10;93.10
30572;DHT22;17348;50.948;10.696;2023-07-24T14:00:10;28.00;93.30
30572;DHT22;17348;50.948;10.696;2023-07-24T14:03:14;28.10;93.20
30572;DHT22;17348;50.948;10.696;2023-07-24T14:06:16;28.00;93.30
30572;DHT22;17348;50.948;10.696;2023-07-24T14:09:18;27.80;93.70
30572;DHT22;17348;50.948;10.696;2023-07-24T14:12:21;27.40;94.00
30572;DHT22;17348;50.948;10.696;2023-07-24T14:15:23;27.50;94.30
30572;DHT22;17348;50.948;10.696;2023-07-24T14:18:27;27.50;94.60
30572;DHT22;17348;50.948;10.696;2023-07-24T14:21:29;27.40;94.70
30572;DHT22;17348;50.948;10.696;2023-07-24T14:24:32;27.20;94.90
30572;DHT22;17348;50.948;10.696;2023-07-24T14:27:34;27.10;95.30
30572;DHT22;17348;50.948;10.696;2023-07-24T14:30:36;26.90;95.40
30572;DHT22;17348;50.948;10.696;2023-07-24T14:33:40;27.00;95.60
30572;DHT22;17348;50.948;10.696;2023-07-24T14:36:42;27.10;95.50
30572;DHT22;17348;50.948;10.696;2023-07-24T14:39:45;27.10;95.80
30572;DHT22;17348;50.948;10.696;2023-07-24T14:42:47;27.10;95.70
30572;DHT22;17348;50.948;10.696;2023-07-24T14:45:49;27.10;95.70
30572;DHT22;17348;50.948;10.696;2023-07-24T14:48:53;27.20;95.50
30572;DHT22;17348;50.948;10.696;2023-07-24T14:51:56;27.30;95.40
30572;DHT22;17348;50.948;10.696;2023-07-24T14:54:58;27.40;95.60
30572;DHT22;17348;50.948;10.696;2023-07-24T14:58:00;27.40;95.60
30572;DHT22;17348;50.948;10.696;2023-07-24T15:01:03;27.20;95.60
30572;DHT22;17348;50.948;10.696;2023-07-24T15:04:06;27.00;95.90
30572;DHT22;17348;50.948;10.696;2023-07-24T15:07:09;26.90;95.90
30572;DHT22;17348;50.948;10.696;2023-07-24T15:10:11;26.80;96.30
30572;DHT22;17348;50.948;10.696;2023-07-24T15:13:13;26.70;96.40
30572;DHT22;17348;50.948;10.696;2023-07-24T15:16:16;26.50;96.50
30572;DHT22;17348;50.948;10.696;2023-07-24T15:19:19;26.50;96.80
30572;DHT22;17348;50.948;10.696;2023-07-24T15:22:22;26.40;96.80
30572;DHT22;17348;50.948;10.696;2023-07-24T15:25:25;26.30;96.60
30572;DHT22;17348;50.948;10.696;2023-07-24T15:28:27;26.20;96.90
30572;DHT22;17348;50.948;10.696;2023-07-24T15:31:30;26.20;97.00
30572;DHT22;17348;50.948;10.696;2023-07-24T15:34:37;26.20;97.30
30572;DHT22;17348;50.948;10.696;2023-07-24T15:37:40;26.20;97.20
30572;DHT22;17348;50.948;10.696;2023-07-24T15:40:42;26.10;97.30
30572;DHT22;17348;50.948;10.696;2023-07-24T15:43:44;26.00;97.50
30572;DHT22;17348;50.948;10.696;2023-07-24T15:46:47;25.90;98.10
30572;DHT22;17348;50.948;10.696;2023-07-24T15:49:50;25.30;96.00
30572;DHT22;17348;50.948;10.696;2023-07-24T15:52:53;24.20;99.10
30572;DHT22;17348;50.948;10.696;2023-07-24T15:55:55;22.60;99.90
30572;DHT22;17348;50.948;10.696;2023-07-24T15:58:57;21.30;99.90
30572;DHT22;17348;50.948;10.696;2023-07-24T16:02:00;20.40;99.90
30572;DHT22;17348;50.948;10.696;2023-07-24T16:05:05;19.50;99.90
30572;DHT22;17348;50.948;10.696;2023-07-24T16:08:07;19.00;99.90
30572;DHT22;17348;50.948;10.696;2023-07-24T16:11:10;18.60;99.90
30572;DHT22;17348;50.948;10.696;2023-07-24T16:14:13;18.40;99.90
30572;DHT22;17348;50.948;10.696;2023-07-24T16:17:15;18.30;99.90
30572;DHT22;17348;50.948;10.696;2023-07-24T16:20:19;18.20;99.90
30572;DHT22;17348;50.948;10.696;2023-07-24T16:23:22;18.10;99.90
30572;DHT22;17348;50.948;10.696;2023-07-24T16:26:24;18.10;99.90
30572;DHT22;17348;50.948;10.696;2023-07-24T16:29:27;18.00;99.90
30572;DHT22;17348;50.948;10.696;2023-07-24T16:32:29;17.90;99.90
30572;DHT22;17348;50.948;10.696;2023-07-24T16:35:33;17.80;99.90
30572;DHT22;17348;50.948;10.696;2023-07-24T16:38:35;17.60;99.90
30572;DHT22;17348;50.948;10.696;2023-07-24T16:41:37;17.50;99.90
30572;DHT22;17348;50.948;10.696;2023-07-24T16:44:40;17.50;99.90
30572;DHT22;17348;50.948;10.696;2023-07-24T16:47:42;17.40;99.90
30572;DHT22;17348;50.948;10.696;2023-07-24T16:50:46;17.40;99.90
30572;DHT22;17348;50.948;10.696;2023-07-24T16:53:48;17.40;99.90
30572;DHT22;17348;50.948;10.696;2023-07-24T16:56:51;17.50;99.90
30572;DHT22;17348;50.948;10.696;2023-07-24T16:59:53;17.60;99.90
30572;DHT22;17348;50.948;10.696;2023-07-24T17:02:55;17.60;99.90
30572;DHT22;17348;50.948;10.696;2023-07-24T17:05:59;17.70;99.90
30572;DHT22;17348;50.948;10.696;2023-07-24T17:09:02;17.80;99.90
30572;DHT22;17348;50.948;10.696;2023-07-24T17:12:05;17.90;99.90
30572;DHT22;17348;50.948;10.696;2023-07-24T17:15:08;18.00;99.90
30572;DHT22;17348;50.948;10.696;2023-07-24T17:18:11;18.10;99.90
30572;DHT22;17348;50.948;10.696;2023-07-24T17:21:14;18.30;99.90
30572;DHT22;17348;50.948;10.696;2023-07-24T17:24:17;18.50;99.90
30572;DHT22;17348;50.948;10.696;2023-07-24T17:27:19;18.60;99.90
30572;DHT22;17348;50.948;10.696;2023-07-24T17:30:22;18.70;99.90
30572;DHT22;17348;50.948;10.696;2023-07-24T17:33:24;18.80;99.90
30572;DHT22;17348;50.948;10.696;2023-07-24T17:36:28;18.90;99.90
30572;DHT22;17348;50.948;10.696;2023-07-24T17:39:30;18.90;99.90
30572;DHT22;17348;50.948;10.696;2023-07-24T17:42:33;19.00;99.90
30572;DHT22;17348;50.948;10.696;2023-07-24T17:45:36;19.10;99.90
30572;DHT22;17348;50.948;10.696;2023-07-24T17:48:38;19.20;99.90
30572;DHT22;17348;50.948;10.696;2023-07-24T17:51:42;19.20;99.90
30572;DHT22;17348;50.948;10.696;2023-07-24T17:54:44;19.10;99.90
30572;DHT22;17348;50.948;10.696;2023-07-24T17:57:48;19.20;99.90
30572;DHT22;17348;50.948;10.696;2023-07-24T18:00:52;19.00;99.90
30572;DHT22;17348;50.948;10.696;2023-07-24T18:03:55;18.90;99.90
30572;DHT22;17348;50.948;10.696;2023-07-24T18:06:58;18.90;99.90
30572;DHT22;17348;50.948;10.696;2023-07-24T18:10:01;18.70;99.90
30572;DHT22;17348;50.948;10.696;2023-07-24T18:13:03;18.70;99.90
30572;DHT22;17348;50.948;10.696;2023-07-24T18:16:05;18.70;99.90
30572;DHT22;17348;50.948;10.696;2023-07-24T18:19:08;18.70;99.90
30572;DHT22;17348;50.948;10.696;2023-07-24T18:22:12;18.60;99.90
30572;DHT22;17348;50.948;10.696;2023-07-24T18:25:14;18.60;99.90
30572;DHT22;17348;50.948;10.696;2023-07-24T18:28:18;18.60;99.90
30572;DHT22;17348;50.948;10.696;2023-07-24T18:31:20;18.60;99.90
30572;DHT22;17348;50.948;10.696;2023-07-24T18:34:22;18.60;99.90
30572;DHT22;17348;50.948;10.696;2023-07-24T18:37:26;18.50;99.90
30572;DHT22;17348;50.948;10.696;2023-07-24T18:40:28;18.50;99.90
30572;DHT22;17348;50.948;10.696;2023-07-24T18:43:31;18.40;99.90
30572;DHT22;17348;50.948;10.696;2023-07-24T18:46:33;18.40;99.90
30572;DHT22;17348;50.948;10.696;2023-07-24T18:49:35;18.30;99.90
30572;DHT22;17348;50.948;10.696;2023-07-24T18:52:39;18.20;99.90
30572;DHT22;17348;50.948;10.696;2023-07-24T18:55:41;18.00;99.90
30572;DHT22;17348;50.948;10.696;2023-07-24T18:58:44;17.90;99.90